createdAt,value
2024-04-18T00:01:08.961Z,957.28
2024-04-18T00:16:08.930Z,957.26
2024-04-18T00:31:09.321Z,957.33
2024-04-18T00:46:09.767Z,957.30
2024-04-18T01:01:10.219Z,957.30
2024-04-18T01:16:10.733Z,957.34
2024-04-18T01:31:11.105Z,957.37
2024-04-18T01:46:11.504Z,957.39
2024-04-18T02:01:12.061Z,957.43
2024-04-18T02:16:12.526Z,957.46
2024-04-18T02:31:13.023Z,957.44
2024-04-18T02:46:13.804Z,957.43
2024-04-18T03:01:14.083Z,957.52
2024-04-18T03:16:14.647Z,957.53
2024-04-18T03:31:15.583Z,957.58
2024-04-18T03:46:15.987Z,957.62
2024-04-18T04:01:16.498Z,957.70
2024-04-18T04:16:16.780Z,957.81
2024-04-18T04:31:17.680Z,957.95
2024-04-18T04:46:18.454Z,958.18
2024-04-18T05:01:19.406Z,958.36
2024-04-18T05:16:19.607Z,958.53
2024-04-18T05:31:20.343Z,958.66
2024-04-18T05:46:21.119Z,958.79
2024-04-18T06:01:21.956Z,958.96
2024-04-18T06:16:22.109Z,959.08
2024-04-18T06:31:22.819Z,959.17
2024-04-18T06:46:23.504Z,959.31
2024-04-18T07:01:24.242Z,959.37
2024-04-18T07:16:24.854Z,959.51
2024-04-18T07:31:25.608Z,959.59
2024-04-18T07:46:26.214Z,959.77
2024-04-18T08:01:28.353Z,959.89
2024-04-18T08:16:27.660Z,960.04
2024-04-18T08:31:28.363Z,960.18
2024-04-18T08:46:28.946Z,960.23
2024-04-18T09:01:29.530Z,960.30
2024-04-18T09:16:30.074Z,960.39
2024-04-18T09:31:37.954Z,960.56
2024-04-18T09:46:32.472Z,960.66
2024-04-18T10:01:31.727Z,960.72
2024-04-18T10:16:32.623Z,960.73
2024-04-18T10:31:33.129Z,960.79
2024-04-18T10:46:33.432Z,960.73
2024-04-18T11:01:33.885Z,960.85
2024-04-18T11:16:34.335Z,960.84
2024-04-18T11:31:35.351Z,960.95
2024-04-18T11:46:36.296Z,960.96
